sensor_id;sensor_type;location;lat;lon;timestamp;P1;durP1;ratioP1;P2;durP2;ratioP2
59516;SDS011;45342;42.662;27.718;2022-10-16T00:02:19;10.93;;;8.05;;
59516;SDS011;45342;42.662;27.718;2022-10-16T00:04:44;11.20;;;7.20;;
59516;SDS011;45342;42.662;27.718;2022-10-16T00:07:10;12.80;;;7.43;;
59516;SDS011;45342;42.662;27.718;2022-10-16T00:09:35;10.82;;;7.70;;
59516;SDS011;45342;42.662;27.718;2022-10-16T00:12:01;9.82;;;7.43;;
59516;SDS011;45342;42.662;27.718;2022-10-16T00:14:28;11.48;;;8.32;;
59516;SDS011;45342;42.662;27.718;2022-10-16T00:16:54;11.73;;;8.27;;
59516;SDS011;45342;42.662;27.718;2022-10-16T00:19:20;12.88;;;8.68;;
59516;SDS011;45342;42.662;27.718;2022-10-16T00:21:45;10.98;;;8.40;;
59516;SDS011;45342;42.662;27.718;2022-10-16T00:24:11;10.48;;;8.00;;
59516;SDS011;45342;42.662;27.718;2022-10-16T00:26:37;9.50;;;8.13;;
59516;SDS011;45342;42.662;27.718;2022-10-16T00:29:03;13.48;;;8.68;;
59516;SDS011;45342;42.662;27.718;2022-10-16T00:31:30;10.07;;;7.88;;
59516;SDS011;45342;42.662;27.718;2022-10-16T00:33:55;12.05;;;8.90;;
59516;SDS011;45342;42.662;27.718;2022-10-16T00:36:22;12.15;;;8.75;;
59516;SDS011;45342;42.662;27.718;2022-10-16T00:38:50;11.55;;;8.35;;
59516;SDS011;45342;42.662;27.718;2022-10-16T00:41:18;13.55;;;9.15;;
59516;SDS011;45342;42.662;27.718;2022-10-16T00:43:52;12.80;;;8.90;;
59516;SDS011;45342;42.662;27.718;2022-10-16T00:51:25;11.75;;;9.20;;
59516;SDS011;45342;42.662;27.718;2022-10-16T00:53:56;11.85;;;9.05;;
59516;SDS011;45342;42.662;27.718;2022-10-16T00:56:21;11.45;;;9.07;;
59516;SDS011;45342;42.662;27.718;2022-10-16T00:58:47;11.45;;;8.43;;
59516;SDS011;45342;42.662;27.718;2022-10-16T01:01:13;11.35;;;8.93;;
59516;SDS011;45342;42.662;27.718;2022-10-16T01:03:39;11.25;;;8.98;;
59516;SDS011;45342;42.662;27.718;2022-10-16T01:08:44;14.48;;;10.15;;
59516;SDS011;45342;42.662;27.718;2022-10-16T01:14:19;13.88;;;9.32;;
59516;SDS011;45342;42.662;27.718;2022-10-16T01:16:52;15.48;;;9.77;;
59516;SDS011;45342;42.662;27.718;2022-10-16T01:19:39;12.50;;;9.80;;
59516;SDS011;45342;42.662;27.718;2022-10-16T01:22:13;12.32;;;9.55;;
59516;SDS011;45342;42.662;27.718;2022-10-16T01:24:40;14.50;;;10.18;;
59516;SDS011;45342;42.662;27.718;2022-10-16T01:27:25;19.17;;;11.00;;
59516;SDS011;45342;42.662;27.718;2022-10-16T01:29:54;18.23;;;11.32;;
59516;SDS011;45342;42.662;27.718;2022-10-16T01:37:44;18.13;;;11.13;;
59516;SDS011;45342;42.662;27.718;2022-10-16T01:40:14;17.00;;;11.18;;
59516;SDS011;45342;42.662;27.718;2022-10-16T01:42:42;21.15;;;11.77;;
59516;SDS011;45342;42.662;27.718;2022-10-16T01:45:12;17.02;;;11.27;;
59516;SDS011;45342;42.662;27.718;2022-10-16T01:47:39;16.67;;;11.68;;
59516;SDS011;45342;42.662;27.718;2022-10-16T01:50:24;18.42;;;11.80;;
59516;SDS011;45342;42.662;27.718;2022-10-16T01:52:51;14.93;;;11.40;;
59516;SDS011;45342;42.662;27.718;2022-10-16T01:55:20;17.85;;;11.65;;
59516;SDS011;45342;42.662;27.718;2022-10-16T01:57:48;15.95;;;11.23;;
59516;SDS011;45342;42.662;27.718;2022-10-16T02:00:15;17.98;;;11.88;;
59516;SDS011;45342;42.662;27.718;2022-10-16T02:02:42;18.75;;;11.60;;
59516;SDS011;45342;42.662;27.718;2022-10-16T02:05:16;20.55;;;11.90;;
59516;SDS011;45342;42.662;27.718;2022-10-16T02:07:58;17.63;;;11.15;;
59516;SDS011;45342;42.662;27.718;2022-10-16T02:10:24;17.20;;;11.50;;
59516;SDS011;45342;42.662;27.718;2022-10-16T02:12:59;20.88;;;11.30;;
59516;SDS011;45342;42.662;27.718;2022-10-16T02:15:27;16.45;;;10.68;;
59516;SDS011;45342;42.662;27.718;2022-10-16T02:17:53;15.60;;;10.85;;
59516;SDS011;45342;42.662;27.718;2022-10-16T02:20:20;16.55;;;10.80;;
59516;SDS011;45342;42.662;27.718;2022-10-16T02:22:48;15.25;;;11.05;;
59516;SDS011;45342;42.662;27.718;2022-10-16T02:25:26;14.50;;;10.90;;
59516;SDS011;45342;42.662;27.718;2022-10-16T02:30:50;15.40;;;11.07;;
59516;SDS011;45342;42.662;27.718;2022-10-16T02:33:19;16.90;;;10.60;;
59516;SDS011;45342;42.662;27.718;2022-10-16T02:35:45;15.52;;;10.80;;
59516;SDS011;45342;42.662;27.718;2022-10-16T02:38:11;14.77;;;10.73;;
59516;SDS011;45342;42.662;27.718;2022-10-16T02:40:38;16.50;;;10.95;;
59516;SDS011;45342;42.662;27.718;2022-10-16T02:43:04;14.32;;;10.35;;
59516;SDS011;45342;42.662;27.718;2022-10-16T02:45:30;15.98;;;11.00;;
59516;SDS011;45342;42.662;27.718;2022-10-16T02:47:56;14.00;;;10.43;;
59516;SDS011;45342;42.662;27.718;2022-10-16T02:50:21;14.32;;;10.55;;
59516;SDS011;45342;42.662;27.718;2022-10-16T02:52:47;12.85;;;9.57;;
59516;SDS011;45342;42.662;27.718;2022-10-16T02:55:13;15.30;;;10.02;;
59516;SDS011;45342;42.662;27.718;2022-10-16T02:57:39;14.75;;;10.82;;
59516;SDS011;45342;42.662;27.718;2022-10-16T03:02:31;11.80;;;9.70;;
59516;SDS011;45342;42.662;27.718;2022-10-16T03:04:57;14.90;;;10.18;;
59516;SDS011;45342;42.662;27.718;2022-10-16T03:07:22;14.52;;;9.65;;
59516;SDS011;45342;42.662;27.718;2022-10-16T03:09:48;13.25;;;10.38;;
59516;SDS011;45342;42.662;27.718;2022-10-16T03:12:14;12.60;;;10.02;;
59516;SDS011;45342;42.662;27.718;2022-10-16T03:14:39;13.63;;;10.40;;
59516;SDS011;45342;42.662;27.718;2022-10-16T03:17:05;15.43;;;9.80;;
59516;SDS011;45342;42.662;27.718;2022-10-16T03:19:31;13.60;;;9.90;;
59516;SDS011;45342;42.662;27.718;2022-10-16T03:21:56;13.70;;;9.65;;
59516;SDS011;45342;42.662;27.718;2022-10-16T03:24:22;13.20;;;9.43;;
59516;SDS011;45342;42.662;27.718;2022-10-16T03:26:48;15.75;;;10.57;;
59516;SDS011;45342;42.662;27.718;2022-10-16T03:29:13;12.32;;;9.82;;
59516;SDS011;45342;42.662;27.718;2022-10-16T03:31:39;11.38;;;9.55;;
59516;SDS011;45342;42.662;27.718;2022-10-16T03:34:04;12.25;;;9.45;;
59516;SDS011;45342;42.662;27.718;2022-10-16T03:36:30;13.27;;;10.05;;
59516;SDS011;45342;42.662;27.718;2022-10-16T03:38:56;13.20;;;9.27;;
59516;SDS011;45342;42.662;27.718;2022-10-16T03:41:21;11.88;;;9.35;;
59516;SDS011;45342;42.662;27.718;2022-10-16T03:43:47;12.80;;;10.10;;
59516;SDS011;45342;42.662;27.718;2022-10-16T03:46:13;13.23;;;9.98;;
59516;SDS011;45342;42.662;27.718;2022-10-16T03:48:38;14.60;;;9.68;;
59516;SDS011;45342;42.662;27.718;2022-10-16T03:53:30;15.95;;;10.05;;
59516;SDS011;45342;42.662;27.718;2022-10-16T03:55:56;12.38;;;9.50;;
59516;SDS011;45342;42.662;27.718;2022-10-16T03:58:21;11.63;;;9.43;;
59516;SDS011;45342;42.662;27.718;2022-10-16T04:00:47;11.40;;;9.07;;
59516;SDS011;45342;42.662;27.718;2022-10-16T04:03:13;13.05;;;9.82;;
59516;SDS011;45342;42.662;27.718;2022-10-16T04:05:39;11.57;;;9.48;;
59516;SDS011;45342;42.662;27.718;2022-10-16T04:08:05;11.13;;;9.75;;
59516;SDS011;45342;42.662;27.718;2022-10-16T04:10:31;13.80;;;9.05;;
59516;SDS011;45342;42.662;27.718;2022-10-16T04:12:57;11.57;;;8.68;;
59516;SDS011;45342;42.662;27.718;2022-10-16T04:15:23;14.05;;;9.52;;
59516;SDS011;45342;42.662;27.718;2022-10-16T04:17:49;12.27;;;8.90;;
59516;SDS011;45342;42.662;27.718;2022-10-16T04:22:40;10.80;;;8.60;;
59516;SDS011;45342;42.662;27.718;2022-10-16T04:25:06;12.38;;;9.38;;
59516;SDS011;45342;42.662;27.718;2022-10-16T04:27:32;11.43;;;9.00;;
59516;SDS011;45342;42.662;27.718;2022-10-16T04:29:58;10.32;;;8.95;;
59516;SDS011;45342;42.662;27.718;2022-10-16T04:32:24;10.75;;;8.82;;
59516;SDS011;45342;42.662;27.718;2022-10-16T04:34:51;10.82;;;8.05;;
59516;SDS011;45342;42.662;27.718;2022-10-16T04:39:42;11.88;;;8.15;;
59516;SDS011;45342;42.662;27.718;2022-10-16T04:42:07;10.52;;;8.40;;
59516;SDS011;45342;42.662;27.718;2022-10-16T04:44:36;9.68;;;7.75;;
59516;SDS011;45342;42.662;27.718;2022-10-16T04:47:02;12.23;;;7.93;;
59516;SDS011;45342;42.662;27.718;2022-10-16T04:49:27;10.65;;;7.20;;
59516;SDS011;45342;42.662;27.718;2022-10-16T04:51:53;11.35;;;7.47;;
59516;SDS011;45342;42.662;27.718;2022-10-16T04:54:19;10.75;;;7.75;;
59516;SDS011;45342;42.662;27.718;2022-10-16T04:56:44;9.35;;;7.28;;
59516;SDS011;45342;42.662;27.718;2022-10-16T04:59:15;9.52;;;7.38;;
59516;SDS011;45342;42.662;27.718;2022-10-16T05:01:40;10.57;;;7.22;;
59516;SDS011;45342;42.662;27.718;2022-10-16T05:04:06;11.75;;;7.88;;
59516;SDS011;45342;42.662;27.718;2022-10-16T05:06:32;10.77;;;7.68;;
59516;SDS011;45342;42.662;27.718;2022-10-16T05:08:58;12.45;;;7.40;;
59516;SDS011;45342;42.662;27.718;2022-10-16T05:11:23;9.65;;;7.82;;
59516;SDS011;45342;42.662;27.718;2022-10-16T05:13:49;9.05;;;7.10;;
59516;SDS011;45342;42.662;27.718;2022-10-16T05:16:14;8.57;;;6.85;;
59516;SDS011;45342;42.662;27.718;2022-10-16T05:18:40;10.23;;;7.25;;
59516;SDS011;45342;42.662;27.718;2022-10-16T05:21:06;8.60;;;7.10;;
59516;SDS011;45342;42.662;27.718;2022-10-16T05:23:31;9.30;;;7.18;;
59516;SDS011;45342;42.662;27.718;2022-10-16T05:25:58;9.65;;;7.10;;
59516;SDS011;45342;42.662;27.718;2022-10-16T05:28:25;9.02;;;6.75;;
59516;SDS011;45342;42.662;27.718;2022-10-16T05:30:51;8.70;;;6.85;;
59516;SDS011;45342;42.662;27.718;2022-10-16T05:33:16;8.50;;;6.60;;
59516;SDS011;45342;42.662;27.718;2022-10-16T05:35:44;9.23;;;7.28;;
59516;SDS011;45342;42.662;27.718;2022-10-16T05:38:10;8.73;;;7.00;;
59516;SDS011;45342;42.662;27.718;2022-10-16T05:40:37;9.27;;;6.97;;
59516;SDS011;45342;42.662;27.718;2022-10-16T05:43:09;9.35;;;7.10;;
59516;SDS011;45342;42.662;27.718;2022-10-16T05:45:34;7.10;;;6.25;;
59516;SDS011;45342;42.662;27.718;2022-10-16T05:48:00;7.75;;;6.20;;
59516;SDS011;45342;42.662;27.718;2022-10-16T05:50:26;10.30;;;6.47;;
59516;SDS011;45342;42.662;27.718;2022-10-16T05:52:52;7.53;;;5.78;;
59516;SDS011;45342;42.662;27.718;2022-10-16T05:55:18;8.45;;;5.65;;
59516;SDS011;45342;42.662;27.718;2022-10-16T05:57:49;8.95;;;6.20;;
59516;SDS011;45342;42.662;27.718;2022-10-16T06:00:14;10.23;;;6.25;;
59516;SDS011;45342;42.662;27.718;2022-10-16T06:02:40;7.38;;;5.80;;
59516;SDS011;45342;42.662;27.718;2022-10-16T06:05:06;8.90;;;5.88;;
59516;SDS011;45342;42.662;27.718;2022-10-16T06:07:35;8.55;;;6.15;;
59516;SDS011;45342;42.662;27.718;2022-10-16T06:10:01;7.28;;;5.85;;
59516;SDS011;45342;42.662;27.718;2022-10-16T06:12:28;8.98;;;5.88;;
59516;SDS011;45342;42.662;27.718;2022-10-16T06:14:53;8.75;;;6.10;;
59516;SDS011;45342;42.662;27.718;2022-10-16T06:17:19;11.15;;;5.80;;
59516;SDS011;45342;42.662;27.718;2022-10-16T06:19:45;9.38;;;4.72;;
59516;SDS011;45342;42.662;27.718;2022-10-16T06:22:10;8.93;;;5.45;;
59516;SDS011;45342;42.662;27.718;2022-10-16T06:24:37;12.82;;;5.28;;
59516;SDS011;45342;42.662;27.718;2022-10-16T06:27:10;7.93;;;5.50;;
59516;SDS011;45342;42.662;27.718;2022-10-16T06:29:36;13.35;;;5.20;;
59516;SDS011;45342;42.662;27.718;2022-10-16T06:32:02;9.57;;;5.63;;
59516;SDS011;45342;42.662;27.718;2022-10-16T06:34:27;12.25;;;5.43;;
59516;SDS011;45342;42.662;27.718;2022-10-16T06:36:53;8.02;;;5.63;;
59516;SDS011;45342;42.662;27.718;2022-10-16T06:39:18;10.50;;;5.85;;
59516;SDS011;45342;42.662;27.718;2022-10-16T06:41:44;10.45;;;6.18;;
59516;SDS011;45342;42.662;27.718;2022-10-16T06:44:09;9.43;;;5.70;;
59516;SDS011;45342;42.662;27.718;2022-10-16T06:46:35;12.52;;;6.05;;
59516;SDS011;45342;42.662;27.718;2022-10-16T06:49:01;9.30;;;5.25;;
59516;SDS011;45342;42.662;27.718;2022-10-16T06:51:26;9.10;;;5.70;;
59516;SDS011;45342;42.662;27.718;2022-10-16T06:53:53;10.18;;;5.40;;
59516;SDS011;45342;42.662;27.718;2022-10-16T06:56:23;8.95;;;5.68;;
59516;SDS011;45342;42.662;27.718;2022-10-16T06:58:53;8.95;;;5.43;;
59516;SDS011;45342;42.662;27.718;2022-10-16T07:03:46;13.17;;;5.90;;
59516;SDS011;45342;42.662;27.718;2022-10-16T07:06:13;14.52;;;7.20;;
59516;SDS011;45342;42.662;27.718;2022-10-16T07:08:41;11.35;;;5.90;;
59516;SDS011;45342;42.662;27.718;2022-10-16T07:11:14;7.57;;;5.55;;
59516;SDS011;45342;42.662;27.718;2022-10-16T07:13:47;9.80;;;6.00;;
59516;SDS011;45342;42.662;27.718;2022-10-16T07:18:40;9.10;;;5.83;;
59516;SDS011;45342;42.662;27.718;2022-10-16T07:21:08;8.98;;;5.93;;
59516;SDS011;45342;42.662;27.718;2022-10-16T07:23:36;9.88;;;5.35;;
59516;SDS011;45342;42.662;27.718;2022-10-16T07:26:03;10.25;;;5.55;;
59516;SDS011;45342;42.662;27.718;2022-10-16T07:28:31;11.45;;;6.03;;
59516;SDS011;45342;42.662;27.718;2022-10-16T07:31:00;10.27;;;6.05;;
59516;SDS011;45342;42.662;27.718;2022-10-16T07:33:28;10.27;;;5.97;;
59516;SDS011;45342;42.662;27.718;2022-10-16T07:35:56;23.85;;;6.78;;
59516;SDS011;45342;42.662;27.718;2022-10-16T07:38:25;19.48;;;6.68;;
59516;SDS011;45342;42.662;27.718;2022-10-16T07:43:28;12.13;;;6.40;;
59516;SDS011;45342;42.662;27.718;2022-10-16T07:45:54;14.32;;;6.15;;
59516;SDS011;45342;42.662;27.718;2022-10-16T07:48:20;18.20;;;5.53;;
59516;SDS011;45342;42.662;27.718;2022-10-16T07:55:42;7.82;;;5.47;;
59516;SDS011;45342;42.662;27.718;2022-10-16T08:00:38;10.00;;;5.72;;
59516;SDS011;45342;42.662;27.718;2022-10-16T08:03:03;11.80;;;5.53;;
59516;SDS011;45342;42.662;27.718;2022-10-16T08:05:31;10.18;;;5.32;;
59516;SDS011;45342;42.662;27.718;2022-10-16T08:07:57;12.82;;;5.90;;
59516;SDS011;45342;42.662;27.718;2022-10-16T08:10:25;9.13;;;5.30;;
59516;SDS011;45342;42.662;27.718;2022-10-16T08:12:54;10.35;;;5.57;;
59516;SDS011;45342;42.662;27.718;2022-10-16T08:15:21;8.82;;;5.15;;
59516;SDS011;45342;42.662;27.718;2022-10-16T08:17:57;8.90;;;5.50;;
59516;SDS011;45342;42.662;27.718;2022-10-16T08:20:24;11.45;;;5.10;;
59516;SDS011;45342;42.662;27.718;2022-10-16T08:22:50;8.23;;;5.30;;
59516;SDS011;45342;42.662;27.718;2022-10-16T08:25:17;9.85;;;5.22;;
59516;SDS011;45342;42.662;27.718;2022-10-16T08:27:47;8.50;;;4.72;;
59516;SDS011;45342;42.662;27.718;2022-10-16T08:30:13;10.00;;;5.00;;
59516;SDS011;45342;42.662;27.718;2022-10-16T08:32:46;10.65;;;5.68;;
59516;SDS011;45342;42.662;27.718;2022-10-16T08:35:14;9.75;;;5.07;;
59516;SDS011;45342;42.662;27.718;2022-10-16T08:37:40;13.00;;;5.45;;
59516;SDS011;45342;42.662;27.718;2022-10-16T08:40:11;9.98;;;5.18;;
59516;SDS011;45342;42.662;27.718;2022-10-16T08:50:48;8.18;;;5.05;;
59516;SDS011;45342;42.662;27.718;2022-10-16T08:53:20;8.32;;;4.85;;
59516;SDS011;45342;42.662;27.718;2022-10-16T08:55:50;13.35;;;4.95;;
59516;SDS011;45342;42.662;27.718;2022-10-16T08:58:21;15.40;;;5.18;;
59516;SDS011;45342;42.662;27.718;2022-10-16T09:00:58;17.55;;;5.57;;
59516;SDS011;45342;42.662;27.718;2022-10-16T09:06:19;11.90;;;5.15;;
59516;SDS011;45342;42.662;27.718;2022-10-16T09:23:32;9.20;;;4.72;;
59516;SDS011;45342;42.662;27.718;2022-10-16T09:26:09;10.63;;;5.03;;
59516;SDS011;45342;42.662;27.718;2022-10-16T09:31:13;10.98;;;5.13;;
59516;SDS011;45342;42.662;27.718;2022-10-16T09:42:31;13.30;;;5.45;;
59516;SDS011;45342;42.662;27.718;2022-10-16T09:44:59;12.10;;;4.53;;
59516;SDS011;45342;42.662;27.718;2022-10-16T09:47:28;9.95;;;5.32;;
59516;SDS011;45342;42.662;27.718;2022-10-16T09:52:32;12.55;;;5.07;;
59516;SDS011;45342;42.662;27.718;2022-10-16T09:57:47;9.95;;;5.40;;
59516;SDS011;45342;42.662;27.718;2022-10-16T10:00:16;10.25;;;4.82;;
59516;SDS011;45342;42.662;27.718;2022-10-16T10:02:45;13.18;;;4.85;;
59516;SDS011;45342;42.662;27.718;2022-10-16T10:05:18;13.20;;;4.90;;
59516;SDS011;45342;42.662;27.718;2022-10-16T10:10:33;9.05;;;5.22;;
59516;SDS011;45342;42.662;27.718;2022-10-16T10:13:02;15.00;;;5.00;;
59516;SDS011;45342;42.662;27.718;2022-10-16T10:15:29;9.85;;;5.30;;
59516;SDS011;45342;42.662;27.718;2022-10-16T10:18:00;10.85;;;4.60;;
59516;SDS011;45342;42.662;27.718;2022-10-16T10:20:28;10.18;;;5.10;;
59516;SDS011;45342;42.662;27.718;2022-10-16T10:22:59;7.60;;;4.65;;
59516;SDS011;45342;42.662;27.718;2022-10-16T10:31:20;9.93;;;4.32;;
59516;SDS011;45342;42.662;27.718;2022-10-16T10:34:51;7.93;;;4.40;;
59516;SDS011;45342;42.662;27.718;2022-10-16T10:40:03;9.35;;;4.35;;
59516;SDS011;45342;42.662;27.718;2022-10-16T10:50:45;6.35;;;4.05;;
59516;SDS011;45342;42.662;27.718;2022-10-16T10:55:52;9.93;;;4.15;;
59516;SDS011;45342;42.662;27.718;2022-10-16T11:04:15;7.10;;;4.35;;
59516;SDS011;45342;42.662;27.718;2022-10-16T11:06:58;10.38;;;4.50;;
59516;SDS011;45342;42.662;27.718;2022-10-16T11:09:45;7.45;;;4.25;;
59516;SDS011;45342;42.662;27.718;2022-10-16T11:17:35;6.15;;;3.85;;
59516;SDS011;45342;42.662;27.718;2022-10-16T11:20:15;6.72;;;3.80;;
59516;SDS011;45342;42.662;27.718;2022-10-16T11:22:43;5.13;;;3.63;;
59516;SDS011;45342;42.662;27.718;2022-10-16T11:30:41;5.82;;;4.15;;
59516;SDS011;45342;42.662;27.718;2022-10-16T11:41:04;7.53;;;3.88;;
59516;SDS011;45342;42.662;27.718;2022-10-16T11:43:40;8.77;;;4.00;;
59516;SDS011;45342;42.662;27.718;2022-10-16T11:46:13;5.35;;;3.75;;
59516;SDS011;45342;42.662;27.718;2022-10-16T11:48:45;4.53;;;3.30;;
59516;SDS011;45342;42.662;27.718;2022-10-16T11:51:47;7.03;;;3.67;;
59516;SDS011;45342;42.662;27.718;2022-10-16T11:54:13;7.25;;;3.85;;
59516;SDS011;45342;42.662;27.718;2022-10-16T11:56:50;5.85;;;4.18;;
59516;SDS011;45342;42.662;27.718;2022-10-16T11:59:20;5.32;;;3.28;;
59516;SDS011;45342;42.662;27.718;2022-10-16T12:05:01;7.25;;;3.42;;
59516;SDS011;45342;42.662;27.718;2022-10-16T12:08:04;5.70;;;3.20;;
59516;SDS011;45342;42.662;27.718;2022-10-16T12:10:40;4.05;;;3.20;;
59516;SDS011;45342;42.662;27.718;2022-10-16T12:16:39;5.68;;;3.65;;
59516;SDS011;45342;42.662;27.718;2022-10-16T12:18:40;6.82;;;4.03;;
59516;SDS011;45342;42.662;27.718;2022-10-16T12:21:10;6.80;;;3.80;;
59516;SDS011;45342;42.662;27.718;2022-10-16T12:23:47;7.28;;;3.50;;
59516;SDS011;45342;42.662;27.718;2022-10-16T12:28:49;5.53;;;3.83;;
59516;SDS011;45342;42.662;27.718;2022-10-16T12:31:16;5.63;;;3.13;;
59516;SDS011;45342;42.662;27.718;2022-10-16T12:33:54;6.00;;;3.50;;
59516;SDS011;45342;42.662;27.718;2022-10-16T12:36:27;6.63;;;3.50;;
59516;SDS011;45342;42.662;27.718;2022-10-16T12:38:54;4.28;;;3.25;;
59516;SDS011;45342;42.662;27.718;2022-10-16T12:41:24;4.45;;;3.20;;
59516;SDS011;45342;42.662;27.718;2022-10-16T12:43:53;5.90;;;3.72;;
59516;SDS011;45342;42.662;27.718;2022-10-16T12:46:23;4.80;;;3.13;;
59516;SDS011;45342;42.662;27.718;2022-10-16T12:51:38;4.53;;;3.58;;
59516;SDS011;45342;42.662;27.718;2022-10-16T13:14:19;7.05;;;3.50;;
59516;SDS011;45342;42.662;27.718;2022-10-16T13:27:52;6.15;;;3.53;;
59516;SDS011;45342;42.662;27.718;2022-10-16T13:30:22;5.05;;;3.30;;
59516;SDS011;45342;42.662;27.718;2022-10-16T13:32:56;4.82;;;3.20;;
59516;SDS011;45342;42.662;27.718;2022-10-16T13:35:29;6.30;;;3.22;;
59516;SDS011;45342;42.662;27.718;2022-10-16T13:38:03;11.05;;;3.70;;
59516;SDS011;45342;42.662;27.718;2022-10-16T13:40:47;5.25;;;3.22;;
59516;SDS011;45342;42.662;27.718;2022-10-16T13:43:19;6.55;;;3.30;;
59516;SDS011;45342;42.662;27.718;2022-10-16T13:46:11;7.32;;;3.42;;
59516;SDS011;45342;42.662;27.718;2022-10-16T13:48:37;6.15;;;3.33;;
59516;SDS011;45342;42.662;27.718;2022-10-16T13:51:04;5.93;;;3.10;;
59516;SDS011;45342;42.662;27.718;2022-10-16T13:53:33;5.72;;;3.40;;
59516;SDS011;45342;42.662;27.718;2022-10-16T13:56:02;3.85;;;3.17;;
59516;SDS011;45342;42.662;27.718;2022-10-16T13:58:29;5.22;;;3.30;;
59516;SDS011;45342;42.662;27.718;2022-10-16T14:01:04;6.13;;;3.00;;
59516;SDS011;45342;42.662;27.718;2022-10-16T14:03:31;5.80;;;3.22;;
59516;SDS011;45342;42.662;27.718;2022-10-16T14:05:59;5.60;;;3.28;;
59516;SDS011;45342;42.662;27.718;2022-10-16T14:08:26;5.18;;;3.38;;
59516;SDS011;45342;42.662;27.718;2022-10-16T14:10:54;5.18;;;3.10;;
59516;SDS011;45342;42.662;27.718;2022-10-16T14:13:28;7.07;;;3.42;;
59516;SDS011;45342;42.662;27.718;2022-10-16T14:16:20;5.53;;;3.47;;
59516;SDS011;45342;42.662;27.718;2022-10-16T14:18:54;4.00;;;3.13;;
59516;SDS011;45342;42.662;27.718;2022-10-16T14:21:22;8.18;;;3.30;;
59516;SDS011;45342;42.662;27.718;2022-10-16T14:23:47;7.30;;;3.50;;
59516;SDS011;45342;42.662;27.718;2022-10-16T14:26:14;5.70;;;3.58;;
59516;SDS011;45342;42.662;27.718;2022-10-16T14:28:42;4.97;;;3.13;;
59516;SDS011;45342;42.662;27.718;2022-10-16T14:31:23;5.10;;;3.28;;
59516;SDS011;45342;42.662;27.718;2022-10-16T14:33:57;7.65;;;3.53;;
59516;SDS011;45342;42.662;27.718;2022-10-16T14:36:23;11.52;;;3.50;;
59516;SDS011;45342;42.662;27.718;2022-10-16T14:39:13;5.55;;;3.17;;
59516;SDS011;45342;42.662;27.718;2022-10-16T14:41:49;6.97;;;3.50;;
59516;SDS011;45342;42.662;27.718;2022-10-16T14:44:17;6.53;;;3.47;;
59516;SDS011;45342;42.662;27.718;2022-10-16T14:46:58;4.80;;;3.53;;
59516;SDS011;45342;42.662;27.718;2022-10-16T14:49:48;3.95;;;3.20;;
59516;SDS011;45342;42.662;27.718;2022-10-16T14:52:20;8.13;;;3.33;;
59516;SDS011;45342;42.662;27.718;2022-10-16T14:54:49;5.57;;;3.33;;
59516;SDS011;45342;42.662;27.718;2022-10-16T14:57:18;4.20;;;3.15;;
59516;SDS011;45342;42.662;27.718;2022-10-16T14:59:46;5.30;;;3.15;;
59516;SDS011;45342;42.662;27.718;2022-10-16T15:02:48;5.68;;;3.08;;
59516;SDS011;45342;42.662;27.718;2022-10-16T15:05:14;5.10;;;3.28;;
59516;SDS011;45342;42.662;27.718;2022-10-16T15:07:43;4.50;;;2.90;;
59516;SDS011;45342;42.662;27.718;2022-10-16T15:10:09;4.25;;;2.92;;
59516;SDS011;45342;42.662;27.718;2022-10-16T15:12:35;4.57;;;2.90;;
59516;SDS011;45342;42.662;27.718;2022-10-16T15:15:00;4.18;;;3.05;;
59516;SDS011;45342;42.662;27.718;2022-10-16T15:17:26;5.43;;;3.25;;
59516;SDS011;45342;42.662;27.718;2022-10-16T15:19:52;5.30;;;3.10;;
59516;SDS011;45342;42.662;27.718;2022-10-16T15:22:18;5.47;;;3.20;;
59516;SDS011;45342;42.662;27.718;2022-10-16T15:24:44;5.38;;;3.22;;
59516;SDS011;45342;42.662;27.718;2022-10-16T15:27:10;4.53;;;3.20;;
59516;SDS011;45342;42.662;27.718;2022-10-16T15:29:35;3.78;;;3.13;;
59516;SDS011;45342;42.662;27.718;2022-10-16T15:32:01;4.50;;;3.35;;
59516;SDS011;45342;42.662;27.718;2022-10-16T15:34:27;3.78;;;3.38;;
59516;SDS011;45342;42.662;27.718;2022-10-16T15:36:52;4.25;;;3.33;;
59516;SDS011;45342;42.662;27.718;2022-10-16T15:39:20;4.03;;;3.05;;
59516;SDS011;45342;42.662;27.718;2022-10-16T15:41:46;6.32;;;3.28;;
59516;SDS011;45342;42.662;27.718;2022-10-16T15:44:19;4.57;;;3.40;;
59516;SDS011;45342;42.662;27.718;2022-10-16T15:46:45;4.38;;;3.25;;
59516;SDS011;45342;42.662;27.718;2022-10-16T15:51:37;7.47;;;3.20;;
59516;SDS011;45342;42.662;27.718;2022-10-16T15:54:04;6.95;;;3.50;;
59516;SDS011;45342;42.662;27.718;2022-10-16T15:56:29;3.95;;;3.17;;
59516;SDS011;45342;42.662;27.718;2022-10-16T15:58:58;5.68;;;2.95;;
59516;SDS011;45342;42.662;27.718;2022-10-16T16:03:52;4.03;;;3.30;;
59516;SDS011;45342;42.662;27.718;2022-10-16T16:06:20;4.68;;;3.17;;
59516;SDS011;45342;42.662;27.718;2022-10-16T16:08:46;6.60;;;3.65;;
59516;SDS011;45342;42.662;27.718;2022-10-16T16:11:13;4.93;;;3.30;;
59516;SDS011;45342;42.662;27.718;2022-10-16T16:13:43;6.15;;;3.50;;
59516;SDS011;45342;42.662;27.718;2022-10-16T16:16:09;6.20;;;3.65;;
59516;SDS011;45342;42.662;27.718;2022-10-16T16:18:37;5.28;;;3.28;;
59516;SDS011;45342;42.662;27.718;2022-10-16T16:21:03;5.10;;;3.50;;
59516;SDS011;45342;42.662;27.718;2022-10-16T16:23:30;7.00;;;3.78;;
59516;SDS011;45342;42.662;27.718;2022-10-16T16:28:30;5.95;;;3.92;;
59516;SDS011;45342;42.662;27.718;2022-10-16T16:30:56;5.07;;;3.22;;
59516;SDS011;45342;42.662;27.718;2022-10-16T16:33:22;4.70;;;3.60;;
59516;SDS011;45342;42.662;27.718;2022-10-16T16:35:48;6.18;;;3.85;;
59516;SDS011;45342;42.662;27.718;2022-10-16T16:38:13;4.93;;;3.35;;
59516;SDS011;45342;42.662;27.718;2022-10-16T16:40:39;5.25;;;3.30;;
59516;SDS011;45342;42.662;27.718;2022-10-16T16:43:05;5.47;;;3.72;;
59516;SDS011;45342;42.662;27.718;2022-10-16T16:45:30;4.65;;;3.60;;
59516;SDS011;45342;42.662;27.718;2022-10-16T16:48:00;7.75;;;3.75;;
59516;SDS011;45342;42.662;27.718;2022-10-16T16:50:27;6.30;;;3.78;;
59516;SDS011;45342;42.662;27.718;2022-10-16T16:52:58;6.00;;;3.83;;
59516;SDS011;45342;42.662;27.718;2022-10-16T16:55:23;4.93;;;3.42;;
59516;SDS011;45342;42.662;27.718;2022-10-16T16:57:49;5.80;;;3.75;;
59516;SDS011;45342;42.662;27.718;2022-10-16T17:00:15;5.25;;;3.63;;
59516;SDS011;45342;42.662;27.718;2022-10-16T17:02:40;3.80;;;3.40;;
59516;SDS011;45342;42.662;27.718;2022-10-16T17:05:08;5.20;;;3.70;;
59516;SDS011;45342;42.662;27.718;2022-10-16T17:07:34;5.97;;;3.88;;
59516;SDS011;45342;42.662;27.718;2022-10-16T17:10:01;5.38;;;3.78;;
59516;SDS011;45342;42.662;27.718;2022-10-16T17:12:28;5.97;;;4.20;;
59516;SDS011;45342;42.662;27.718;2022-10-16T17:14:55;8.63;;;4.50;;
59516;SDS011;45342;42.662;27.718;2022-10-16T17:17:20;5.40;;;4.10;;
59516;SDS011;45342;42.662;27.718;2022-10-16T17:19:46;6.63;;;4.57;;
59516;SDS011;45342;42.662;27.718;2022-10-16T17:22:14;7.13;;;4.40;;
59516;SDS011;45342;42.662;27.718;2022-10-16T17:24:40;7.28;;;4.35;;
59516;SDS011;45342;42.662;27.718;2022-10-16T17:27:05;7.90;;;4.20;;
59516;SDS011;45342;42.662;27.718;2022-10-16T17:29:31;6.90;;;4.82;;
59516;SDS011;45342;42.662;27.718;2022-10-16T17:31:56;7.38;;;4.32;;
59516;SDS011;45342;42.662;27.718;2022-10-16T17:34:23;9.20;;;4.78;;
59516;SDS011;45342;42.662;27.718;2022-10-16T17:36:49;5.82;;;4.65;;
59516;SDS011;45342;42.662;27.718;2022-10-16T17:39:15;7.72;;;4.93;;